createdAt,value
2022-08-14T00:02:07.219Z,6.70
2022-08-14T00:04:44.711Z,4.40
2022-08-14T00:07:20.392Z,6.70
2022-08-14T00:10:49.878Z,4.63
2022-08-14T00:12:57.222Z,3.80
2022-08-14T00:15:43.845Z,4.20
2022-08-14T00:18:31.067Z,3.70
2022-08-14T00:21:18.856Z,3.30
2022-08-14T00:23:57.515Z,3.67
2022-08-14T00:26:36.914Z,2.80
2022-08-14T00:29:13.277Z,3.77
2022-08-14T00:31:48.325Z,3.60
2022-08-14T00:34:35.253Z,3.47
2022-08-14T00:37:13.392Z,3.20
2022-08-14T00:39:49.058Z,3.80
2022-08-14T00:42:55.243Z,3.47
2022-08-14T00:45:20.522Z,3.80
2022-08-14T00:47:58.354Z,3.30
2022-08-14T00:50:35.093Z,5.27
2022-08-14T00:53:11.317Z,4.13
2022-08-14T00:55:47.220Z,4.40
2022-08-14T00:58:33.443Z,4.50
2022-08-14T01:01:12.706Z,4.00
2022-08-14T01:03:52.817Z,4.43
2022-08-14T01:06:30.199Z,4.30
2022-08-14T01:09:10.508Z,4.17
2022-08-14T01:11:46.053Z,4.13
2022-08-14T01:14:37.651Z,4.73
2022-08-14T01:17:15.722Z,4.30
2022-08-14T01:20:27.688Z,5.20
2022-08-14T01:23:10.325Z,4.60
2022-08-14T01:25:52.118Z,3.30
2022-08-14T01:28:47.018Z,4.70
2022-08-14T01:31:26.677Z,4.33
2022-08-14T01:35:20.114Z,4.43
2022-08-14T01:37:04.649Z,4.57
2022-08-14T01:39:43.195Z,4.20
2022-08-14T01:42:31.110Z,4.73
2022-08-14T01:45:12.866Z,4.43
2022-08-14T01:48:03.480Z,5.07
2022-08-14T01:50:39.332Z,5.20
2022-08-14T01:53:17.731Z,5.07
2022-08-14T01:55:57.575Z,4.30
2022-08-14T01:58:33.126Z,4.70
2022-08-14T02:01:08.119Z,4.87
2022-08-14T02:03:49.893Z,4.83
2022-08-14T02:06:33.072Z,4.97
2022-08-14T02:09:09.196Z,4.13
2022-08-14T02:11:57.422Z,4.67
2022-08-14T02:14:33.086Z,3.93
2022-08-14T02:17:13.329Z,4.80
2022-08-14T02:19:49.188Z,5.20
2022-08-14T02:22:29.248Z,4.50
2022-08-14T02:25:08.933Z,5.00
2022-08-14T02:28:25.936Z,4.80
2022-08-14T02:30:41.063Z,5.47
2022-08-14T02:33:16.293Z,4.83
2022-08-14T02:35:53.282Z,3.97
2022-08-14T02:38:36.879Z,4.33
2022-08-14T02:41:13.877Z,5.50
2022-08-14T02:43:48.798Z,4.60
2022-08-14T02:46:26.961Z,4.23
2022-08-14T02:49:07.145Z,4.20
2022-08-14T02:51:42.870Z,4.13
2022-08-14T02:54:19.618Z,5.33
2022-08-14T02:57:15.808Z,4.73
2022-08-14T02:59:53.615Z,4.30
2022-08-14T03:02:43.394Z,3.93
2022-08-14T03:05:24.526Z,5.40
2022-08-14T03:08:15.980Z,4.97
2022-08-14T03:10:53.796Z,4.37
2022-08-14T03:13:35.850Z,4.60
2022-08-14T03:16:20.067Z,4.87
2022-08-14T03:19:03.048Z,4.63
2022-08-14T03:21:40.830Z,5.20
2022-08-14T03:24:22.903Z,5.43
2022-08-14T03:26:58.353Z,4.90
2022-08-14T03:29:33.396Z,4.60
2022-08-14T03:32:10.249Z,4.43
2022-08-14T03:34:48.496Z,4.97
2022-08-14T03:39:09.589Z,5.03
2022-08-14T03:40:25.997Z,5.57
2022-08-14T03:43:05.589Z,5.80
2022-08-14T03:45:48.054Z,5.87
2022-08-14T03:48:30.461Z,5.10
2022-08-14T03:51:09.097Z,5.13
2022-08-14T03:53:47.464Z,5.13
2022-08-14T03:56:26.546Z,5.73
2022-08-14T03:59:10.293Z,4.50
2022-08-14T04:01:58.128Z,5.23
2022-08-14T04:04:38.119Z,5.50
2022-08-14T04:07:14.518Z,5.27
2022-08-14T04:09:49.499Z,5.47
2022-08-14T04:12:26.268Z,5.10
2022-08-14T04:15:01.792Z,5.30
2022-08-14T04:17:37.433Z,4.80
2022-08-14T04:20:13.256Z,5.10
2022-08-14T04:23:01.613Z,4.87
2022-08-14T04:25:37.497Z,5.67
2022-08-14T04:29:07.825Z,5.37
2022-08-14T04:31:07.526Z,5.50
2022-08-14T04:33:43.937Z,5.47
2022-08-14T04:36:19.943Z,5.40
2022-08-14T04:39:17.558Z,5.40
2022-08-14T04:42:14.039Z,5.03
2022-08-14T04:44:49.238Z,5.27
2022-08-14T04:47:53.708Z,5.70
2022-08-14T04:50:33.858Z,5.73
2022-08-14T04:53:35.535Z,4.77
2022-08-14T04:56:33.525Z,5.07
2022-08-14T04:59:11.141Z,4.47
2022-08-14T05:01:49.056Z,5.00
2022-08-14T05:04:25.816Z,5.00
2022-08-14T05:07:01.098Z,5.53
2022-08-14T05:09:36.052Z,5.20
2022-08-14T05:13:10.659Z,4.73
2022-08-14T05:15:14.238Z,4.83
2022-08-14T05:17:58.769Z,4.60
2022-08-14T05:21:54.684Z,4.70
2022-08-14T05:23:44.795Z,5.50
2022-08-14T05:26:21.693Z,4.83
2022-08-14T05:28:56.612Z,4.37
2022-08-14T05:31:39.563Z,5.33
2022-08-14T05:34:15.125Z,4.57
2022-08-14T05:37:02.066Z,4.57
2022-08-14T05:39:41.210Z,4.80
2022-08-14T05:42:21.560Z,4.27
2022-08-14T05:44:57.478Z,4.87
2022-08-14T05:47:33.963Z,5.77
2022-08-14T05:50:17.636Z,4.97
2022-08-14T05:52:55.079Z,4.50
2022-08-14T05:55:30.573Z,5.60
2022-08-14T05:58:08.447Z,4.20
2022-08-14T06:00:45.380Z,3.93
2022-08-14T06:03:23.641Z,4.63
2022-08-14T06:05:59.418Z,4.80
2022-08-14T06:08:36.063Z,4.23
2022-08-14T06:11:20.409Z,4.10
2022-08-14T06:14:06.638Z,4.13
2022-08-14T06:16:47.577Z,4.40
2022-08-14T06:19:23.618Z,3.80
2022-08-14T06:21:59.131Z,4.00
2022-08-14T06:24:35.768Z,3.63
2022-08-14T06:27:10.899Z,3.63
2022-08-14T06:29:45.810Z,3.10
2022-08-14T06:32:37.645Z,3.50
2022-08-14T06:35:15.373Z,2.80
2022-08-14T06:37:56.643Z,4.70
2022-08-14T06:40:37.129Z,3.13
2022-08-14T06:43:17.088Z,3.30
2022-08-14T06:45:54.914Z,3.30
2022-08-14T06:48:32.727Z,3.80
2022-08-14T06:51:10.328Z,2.93
2022-08-14T06:53:47.051Z,3.90
2022-08-14T06:56:23.147Z,3.00
2022-08-14T06:58:58.092Z,3.90
2022-08-14T07:01:56.531Z,2.83
2022-08-14T07:04:50.137Z,3.07
2022-08-14T07:07:25.089Z,3.00
2022-08-14T07:10:05.045Z,2.60
2022-08-14T07:12:54.583Z,3.10
2022-08-14T07:15:39.631Z,2.90
2022-08-14T07:18:22.133Z,3.63
2022-08-14T07:21:00.039Z,2.33
2022-08-14T07:23:40.116Z,2.60
2022-08-14T07:26:15.254Z,2.30
2022-08-14T07:28:50.161Z,2.73
2022-08-14T07:31:25.111Z,2.50
2022-08-14T07:34:00.500Z,2.90
2022-08-14T07:36:39.090Z,2.50
2022-08-14T07:39:34.583Z,2.37
2022-08-14T07:42:10.185Z,2.80
2022-08-14T07:44:46.470Z,2.57
2022-08-14T07:47:25.455Z,2.93
2022-08-14T07:50:12.742Z,2.53
2022-08-14T07:52:51.640Z,2.53
2022-08-14T07:55:26.876Z,2.50
2022-08-14T07:58:05.841Z,2.50
2022-08-14T08:00:59.503Z,2.70
2022-08-14T08:03:35.450Z,3.03
2022-08-14T08:06:17.328Z,2.40
2022-08-14T08:09:01.143Z,2.20
2022-08-14T08:11:38.994Z,2.53
2022-08-14T08:14:17.304Z,2.23
2022-08-14T08:16:53.079Z,2.83
2022-08-14T08:19:28.125Z,2.57
2022-08-14T08:22:11.770Z,2.50
2022-08-14T08:24:46.684Z,2.70
2022-08-14T08:27:25.392Z,2.27
2022-08-14T08:30:10.018Z,2.20
2022-08-14T08:32:46.336Z,2.57
2022-08-14T08:35:25.686Z,2.47
2022-08-14T08:39:14.681Z,2.30
2022-08-14T08:41:19.932Z,3.20
2022-08-14T08:44:05.520Z,2.60
2022-08-14T08:46:43.821Z,2.50
2022-08-14T08:49:19.366Z,2.97
2022-08-14T08:52:04.469Z,2.30
2022-08-14T08:54:39.577Z,2.33
2022-08-14T08:57:15.681Z,1.90
2022-08-14T08:59:58.577Z,2.10
2022-08-14T09:02:34.006Z,2.40
2022-08-14T09:05:09.641Z,2.10
2022-08-14T09:07:46.210Z,2.30
2022-08-14T09:10:27.078Z,2.90
2022-08-14T09:13:03.197Z,2.60
2022-08-14T09:15:42.576Z,2.57
2022-08-14T09:18:20.284Z,2.33
2022-08-14T09:20:58.796Z,2.23
2022-08-14T09:23:34.846Z,2.67
2022-08-14T09:26:29.068Z,2.37
2022-08-14T09:29:10.535Z,2.43
2022-08-14T09:31:52.871Z,2.90
2022-08-14T09:35:21.263Z,2.70
2022-08-14T09:38:40.598Z,2.80
2022-08-14T09:42:20.187Z,2.40
2022-08-14T09:45:24.066Z,3.00
2022-08-14T09:47:59.840Z,2.90
2022-08-14T09:50:48.310Z,2.53
2022-08-14T09:54:19.524Z,2.30
2022-08-14T09:56:57.176Z,2.40
2022-08-14T09:59:46.052Z,2.50
2022-08-14T10:02:28.470Z,3.10
2022-08-14T10:05:11.416Z,2.50
2022-08-14T10:07:53.559Z,2.90
2022-08-14T10:10:39.542Z,3.30
2022-08-14T10:13:25.895Z,2.47
2022-08-14T10:16:01.767Z,2.50
2022-08-14T10:18:37.281Z,2.57
2022-08-14T10:21:18.161Z,2.40
2022-08-14T10:23:53.154Z,2.50
2022-08-14T10:26:28.684Z,2.93
2022-08-14T10:29:19.591Z,2.93
2022-08-14T10:31:59.534Z,2.80
2022-08-14T10:34:38.645Z,2.70
2022-08-14T10:37:17.975Z,2.77
2022-08-14T10:40:10.993Z,2.67
2022-08-14T10:42:57.613Z,3.00
2022-08-14T10:45:35.745Z,2.73
2022-08-14T10:48:24.494Z,2.67
2022-08-14T10:51:11.579Z,2.70
2022-08-14T10:53:56.895Z,3.20
2022-08-14T10:56:35.599Z,2.90
2022-08-14T10:59:11.096Z,3.10
2022-08-14T11:01:46.007Z,2.93
2022-08-14T11:04:26.042Z,3.10
2022-08-14T11:07:02.546Z,2.60
2022-08-14T11:09:42.021Z,3.50
2022-08-14T11:12:34.983Z,2.47
2022-08-14T11:15:12.842Z,2.90
2022-08-14T11:17:50.708Z,3.07
2022-08-14T11:20:29.853Z,3.00
2022-08-14T11:23:09.953Z,2.67
2022-08-14T11:25:53.302Z,3.07
2022-08-14T11:28:47.333Z,2.57
2022-08-14T11:31:24.391Z,5.53
2022-08-14T11:33:59.734Z,3.23
2022-08-14T11:37:04.425Z,4.80
2022-08-14T11:39:34.762Z,3.03
2022-08-14T11:42:56.388Z,2.70
2022-08-14T11:45:23.259Z,3.10
2022-08-14T11:48:13.141Z,2.70
2022-08-14T11:50:54.466Z,3.03
2022-08-14T11:53:31.463Z,2.97
2022-08-14T11:56:06.850Z,2.93
2022-08-14T11:58:53.089Z,3.00
2022-08-14T12:01:31.276Z,3.30
2022-08-14T12:04:31.855Z,2.63
2022-08-14T12:07:08.407Z,3.20
2022-08-14T12:09:45.664Z,2.77
2022-08-14T12:12:35.949Z,3.33
2022-08-14T12:15:34.842Z,2.83
2022-08-14T12:18:19.244Z,2.73
2022-08-14T12:20:59.518Z,2.70
2022-08-14T12:23:35.274Z,2.77
2022-08-14T12:26:39.592Z,3.00
2022-08-14T12:29:16.837Z,2.33
2022-08-14T12:32:04.462Z,2.73
2022-08-14T12:34:45.063Z,2.50
2022-08-14T12:37:30.688Z,2.57
2022-08-14T12:40:13.953Z,2.37
2022-08-14T12:42:56.650Z,2.27
2022-08-14T12:45:34.346Z,2.57
2022-08-14T12:48:21.112Z,1.80
2022-08-14T12:51:21.673Z,2.63
2022-08-14T12:54:26.958Z,2.53
2022-08-14T12:57:09.202Z,2.07
2022-08-14T12:59:45.531Z,1.70
2022-08-14T13:02:27.183Z,1.90
2022-08-14T13:05:04.485Z,1.87
2022-08-14T13:07:45.794Z,1.63
2022-08-14T13:10:47.202Z,1.80
2022-08-14T13:13:18.495Z,2.00
2022-08-14T13:15:57.396Z,1.80
2022-08-14T13:18:33.986Z,1.57
2022-08-14T13:21:13.930Z,1.77
2022-08-14T13:23:52.352Z,1.50
2022-08-14T13:26:28.397Z,1.80
2022-08-14T13:29:03.858Z,1.40
2022-08-14T13:31:42.617Z,1.93
2022-08-14T13:34:22.945Z,1.90
2022-08-14T13:37:03.756Z,1.77
2022-08-14T13:39:39.674Z,1.60
2022-08-14T13:42:14.829Z,1.40
2022-08-14T13:44:53.881Z,1.47
2022-08-14T13:47:32.383Z,1.20
2022-08-14T13:50:12.741Z,1.40
2022-08-14T13:52:55.396Z,1.63
2022-08-14T13:55:31.324Z,1.60
2022-08-14T13:58:11.561Z,1.53
2022-08-14T14:01:06.754Z,1.83
2022-08-14T14:03:50.114Z,1.80
2022-08-14T14:06:26.289Z,1.50
2022-08-14T14:09:03.344Z,1.60
2022-08-14T14:11:38.670Z,1.60
2022-08-14T14:14:44.690Z,1.53
2022-08-14T14:17:14.564Z,1.60
2022-08-14T14:19:50.912Z,1.83
2022-08-14T14:23:01.843Z,1.90
2022-08-14T14:25:23.044Z,1.63
2022-08-14T14:27:59.519Z,2.00
2022-08-14T14:30:52.074Z,1.63
2022-08-14T14:33:47.635Z,1.33
2022-08-14T14:36:32.175Z,1.50
2022-08-14T14:39:08.387Z,8.30
2022-08-14T14:41:44.677Z,1.60
2022-08-14T14:44:24.626Z,1.70
2022-08-14T14:47:01.892Z,1.27
2022-08-14T14:49:51.443Z,1.63
2022-08-14T14:52:31.988Z,1.87
2022-08-14T14:55:17.134Z,1.80
2022-08-14T14:57:55.059Z,1.50
2022-08-14T15:00:30.971Z,1.30
2022-08-14T15:03:07.054Z,1.50
2022-08-14T15:05:42.828Z,1.50
2022-08-14T15:08:26.827Z,2.13
2022-08-14T15:11:13.436Z,1.50
2022-08-14T15:13:53.142Z,1.20
2022-08-14T15:16:29.121Z,1.20
2022-08-14T15:19:05.187Z,1.30
2022-08-14T15:21:41.059Z,1.50
2022-08-14T15:24:20.897Z,1.30
2022-08-14T15:27:00.577Z,1.73
2022-08-14T15:29:38.756Z,2.80
2022-08-14T15:32:22.816Z,1.57
2022-08-14T15:34:58.942Z,1.40
2022-08-14T15:37:42.461Z,1.20
2022-08-14T15:40:22.283Z,1.40
2022-08-14T15:42:57.888Z,1.47
2022-08-14T15:45:33.980Z,3.67
2022-08-14T15:48:21.966Z,1.20
2022-08-14T15:50:58.651Z,1.73
2022-08-14T15:53:33.934Z,1.23
2022-08-14T15:56:10.393Z,1.60
2022-08-14T15:59:05.427Z,1.40
2022-08-14T16:01:53.433Z,1.50
2022-08-14T16:04:29.779Z,1.57
2022-08-14T16:07:06.645Z,1.83
2022-08-14T16:09:44.393Z,1.90
2022-08-14T16:12:20.040Z,1.60
2022-08-14T16:15:16.893Z,1.60
2022-08-14T16:17:53.301Z,2.00
2022-08-14T16:26:29.835Z,1.80
2022-08-14T16:29:15.428Z,1.57
2022-08-14T16:31:51.151Z,1.60
2022-08-14T16:34:45.882Z,2.33
2022-08-14T16:37:22.203Z,1.40
2022-08-14T16:39:58.616Z,1.67
2022-08-14T16:40:23.967Z,1.93
2022-08-14T16:42:38.640Z,1.70
2022-08-14T16:45:31.800Z,2.23
2022-08-14T16:48:57.418Z,1.80
2022-08-14T16:51:07.048Z,1.70
2022-08-14T16:53:43.394Z,1.40
2022-08-14T16:56:24.147Z,1.50
2022-08-14T16:59:21.205Z,1.80
2022-08-14T17:02:06.661Z,1.83
2022-08-14T17:04:42.894Z,1.80
2022-08-14T17:07:24.306Z,1.60
2022-08-14T17:10:09.679Z,1.53
2022-08-14T17:12:47.557Z,1.60
2022-08-14T17:15:22.722Z,1.50
2022-08-14T17:18:04.559Z,1.73
2022-08-14T17:21:01.946Z,1.60
2022-08-14T17:23:39.091Z,1.90
2022-08-14T17:26:46.826Z,1.70
2022-08-14T17:29:29.452Z,1.93
2022-08-14T17:32:22.084Z,1.90
2022-08-14T17:35:07.570Z,2.20
2022-08-14T17:37:54.737Z,3.20
2022-08-14T17:40:31.142Z,2.57
2022-08-14T17:43:07.169Z,2.80
2022-08-14T17:45:46.618Z,3.10
2022-08-14T17:49:13.949Z,2.67
2022-08-14T17:51:30.028Z,2.77
2022-08-14T17:54:08.541Z,2.80
2022-08-14T17:56:44.620Z,2.60
2022-08-14T17:59:22.854Z,2.47
2022-08-14T18:02:00.400Z,3.03
2022-08-14T18:04:36.845Z,2.13
2022-08-14T18:07:59.994Z,2.70
2022-08-14T18:10:52.924Z,2.50
2022-08-14T18:13:10.806Z,2.20
2022-08-14T18:15:50.959Z,2.40
2022-08-14T18:18:26.243Z,1.97
2022-08-14T18:21:24.128Z,2.23
2022-08-14T18:24:02.345Z,1.80
2022-08-14T18:26:39.448Z,1.70
2022-08-14T18:29:16.830Z,2.10
2022-08-14T18:31:53.879Z,2.27
2022-08-14T18:34:48.421Z,2.20
2022-08-14T18:37:26.449Z,2.00
2022-08-14T18:40:20.140Z,2.83
2022-08-14T18:43:03.288Z,2.20
2022-08-14T18:46:00.799Z,2.40
2022-08-14T18:48:51.467Z,2.50
2022-08-14T18:51:45.893Z,2.67
2022-08-14T18:54:32.832Z,2.10
2022-08-14T18:57:08.968Z,2.30
2022-08-14T18:59:44.761Z,1.93
2022-08-14T19:02:30.696Z,1.60
2022-08-14T19:05:06.647Z,1.90
2022-08-14T19:07:48.470Z,1.87
2022-08-14T19:10:31.830Z,1.80
2022-08-14T19:13:20.442Z,1.80
2022-08-14T19:16:13.407Z,2.03
2022-08-14T19:18:53.526Z,2.70
2022-08-14T19:21:58.082Z,1.97
2022-08-14T19:24:43.886Z,2.20
2022-08-14T19:27:24.647Z,2.00
2022-08-14T19:30:19.760Z,1.97
2022-08-14T19:33:03.621Z,2.17
2022-08-14T19:35:49.393Z,2.10
2022-08-14T19:38:57.297Z,2.47
2022-08-14T19:41:35.480Z,2.53
2022-08-14T19:44:19.346Z,2.50
2022-08-14T19:47:00.985Z,2.50
2022-08-14T19:50:24.605Z,2.03
2022-08-14T19:52:41.031Z,2.83
2022-08-14T19:55:34.156Z,2.53
2022-08-14T19:58:10.411Z,2.50
2022-08-14T20:00:57.140Z,2.80
2022-08-14T20:04:00.043Z,2.33
2022-08-14T20:06:46.458Z,3.20
2022-08-14T20:11:08.263Z,2.80
2022-08-14T20:12:28.788Z,3.57
2022-08-14T20:15:15.556Z,5.10
2022-08-14T20:17:53.579Z,3.67
2022-08-14T20:20:31.656Z,3.27
2022-08-14T20:23:17.905Z,3.20
2022-08-14T20:25:56.709Z,3.27
2022-08-14T20:28:32.795Z,3.60
2022-08-14T20:31:17.824Z,3.37
2022-08-14T20:34:24.889Z,3.53
2022-08-14T20:37:22.107Z,3.67
2022-08-14T20:39:57.621Z,5.20
2022-08-14T20:42:53.831Z,2.63
2022-08-14T20:45:29.372Z,5.53
2022-08-14T20:48:09.280Z,3.13
2022-08-14T20:50:46.843Z,3.10
2022-08-14T20:53:28.813Z,4.13
2022-08-14T20:56:28.142Z,2.80
2022-08-14T20:59:25.013Z,2.63
2022-08-14T21:02:38.788Z,3.00
2022-08-14T21:05:33.919Z,2.60
2022-08-14T21:08:22.292Z,3.17
2022-08-14T21:10:58.993Z,2.57
2022-08-14T21:14:20.013Z,3.67
2022-08-14T21:16:35.125Z,3.30
2022-08-14T21:19:16.266Z,5.93
2022-08-14T21:21:54.837Z,3.33
2022-08-14T21:24:40.155Z,3.27
2022-08-14T21:27:23.589Z,3.03
2022-08-14T21:29:59.673Z,3.00
2022-08-14T21:32:50.414Z,2.77
2022-08-14T21:35:41.723Z,4.40
2022-08-14T21:38:18.107Z,3.07
2022-08-14T21:40:55.536Z,3.17
2022-08-14T21:43:32.180Z,3.83
2022-08-14T21:46:07.917Z,2.90
2022-08-14T21:48:44.274Z,2.90
2022-08-14T21:51:55.445Z,3.53
2022-08-14T21:54:32.131Z,3.20
2022-08-14T21:57:13.720Z,2.97
2022-08-14T21:59:49.919Z,2.90
2022-08-14T22:02:32.476Z,3.00
2022-08-14T22:05:11.089Z,3.00
2022-08-14T22:07:47.359Z,3.33
2022-08-14T22:10:29.890Z,2.93
2022-08-14T22:13:07.528Z,3.27
2022-08-14T22:15:49.419Z,2.90
2022-08-14T22:18:25.581Z,3.57
2022-08-14T22:21:00.681Z,2.53
2022-08-14T22:23:40.967Z,2.87
2022-08-14T22:26:21.815Z,2.90
2022-08-14T22:28:57.758Z,3.20
2022-08-14T22:31:39.589Z,2.73
2022-08-14T22:34:15.474Z,2.40
2022-08-14T22:36:54.335Z,2.90
2022-08-14T22:40:51.072Z,3.37
2022-08-14T22:42:27.744Z,2.50
2022-08-14T22:45:12.716Z,3.43
2022-08-14T22:47:48.049Z,2.93
2022-08-14T22:50:33.505Z,3.47
2022-08-14T22:53:10.258Z,4.23
2022-08-14T22:55:45.284Z,3.60
2022-08-14T22:58:31.721Z,3.27
2022-08-14T23:01:16.248Z,3.50
2022-08-14T23:03:51.833Z,4.50
2022-08-14T23:07:02.932Z,3.60
2022-08-14T23:09:35.364Z,3.33
2022-08-14T23:12:28.533Z,4.00
2022-08-14T23:15:05.460Z,3.63
2022-08-14T23:17:42.651Z,2.87
2022-08-14T23:20:22.165Z,3.60
2022-08-14T23:22:58.106Z,2.90
2022-08-14T23:25:59.629Z,4.20
2022-08-14T23:28:34.191Z,3.13
2022-08-14T23:31:35.016Z,3.27
2022-08-14T23:34:20.764Z,4.00
2022-08-14T23:36:58.146Z,3.73
2022-08-14T23:39:39.401Z,3.70
2022-08-14T23:42:17.920Z,3.40
2022-08-14T23:44:53.179Z,3.27
2022-08-14T23:47:28.263Z,3.20
2022-08-14T23:50:07.823Z,3.50
2022-08-14T23:53:07.469Z,2.93
2022-08-14T23:55:43.106Z,3.20
2022-08-14T23:58:29.609Z,2.57
